createdAt,value
2018-02-10T00:00:36.079Z,6.20
2018-02-10T00:01:37.177Z,6.20
2018-02-10T00:03:46.138Z,6.20
2018-02-10T00:04:47.971Z,6.20
2018-02-10T00:05:49.206Z,6.20
2018-02-10T00:06:53.751Z,6.20
2018-02-10T00:07:54.875Z,6.10
2018-02-10T00:08:55.959Z,6.20
2018-02-10T00:09:57.048Z,6.20
2018-02-10T00:10:58.138Z,6.20
2018-02-10T00:11:59.239Z,6.20
2018-02-10T00:13:00.351Z,6.20
2018-02-10T00:14:02.167Z,6.20
2018-02-10T00:15:03.248Z,6.20
2018-02-10T00:16:04.340Z,6.20
2018-02-10T00:17:05.410Z,6.20
2018-02-10T00:18:06.490Z,6.20
2018-02-10T00:19:07.576Z,6.20
2018-02-10T00:20:08.667Z,6.20
2018-02-10T00:21:09.779Z,6.20
2018-02-10T00:22:10.876Z,6.20
2018-02-10T00:23:12.004Z,6.20
2018-02-10T00:24:13.128Z,6.20
2018-02-10T00:25:15.380Z,6.10
2018-02-10T00:26:16.790Z,6.00
2018-02-10T00:27:18.751Z,6.10
2018-02-10T00:28:19.816Z,6.00
2018-02-10T00:29:20.906Z,6.10
2018-02-10T00:30:22.470Z,6.10
2018-02-10T00:31:25.076Z,6.10
2018-02-10T00:32:26.491Z,6.10
2018-02-10T00:33:28.523Z,6.10
2018-02-10T00:34:29.601Z,6.10
2018-02-10T00:35:31.451Z,6.10
2018-02-10T00:36:32.536Z,6.10
2018-02-10T00:37:33.640Z,6.10
2018-02-10T00:38:34.745Z,6.10
2018-02-10T00:39:35.843Z,6.20
2018-02-10T00:40:37.686Z,6.10
2018-02-10T00:41:38.787Z,6.10
2018-02-10T00:42:40.014Z,6.20
2018-02-10T00:43:41.088Z,6.20
2018-02-10T00:44:42.233Z,6.10
2018-02-10T00:45:44.083Z,6.10
2018-02-10T00:46:45.208Z,6.10
2018-02-10T00:47:46.320Z,6.20
2018-02-10T00:48:47.416Z,6.00
2018-02-10T00:49:48.587Z,6.20
2018-02-10T00:50:49.659Z,6.20
2018-02-10T00:51:50.715Z,6.20
2018-02-10T00:52:51.797Z,6.20
2018-02-10T00:53:52.868Z,6.20
2018-02-10T00:54:53.927Z,6.20
2018-02-10T00:55:54.996Z,6.20
2018-02-10T00:56:56.054Z,6.20
2018-02-10T00:57:57.119Z,6.20
2018-02-10T00:58:58.196Z,6.20
2018-02-10T00:59:59.250Z,6.20
2018-02-10T01:01:01.055Z,6.20
2018-02-10T01:02:02.142Z,6.20
2018-02-10T01:03:03.204Z,6.30
2018-02-10T01:04:04.282Z,6.20
2018-02-10T01:05:05.355Z,6.30
2018-02-10T01:06:06.455Z,6.30
2018-02-10T01:07:08.270Z,6.30
2018-02-10T01:08:09.326Z,6.20
2018-02-10T01:09:10.390Z,6.30
2018-02-10T01:10:11.479Z,6.20
2018-02-10T01:11:13.320Z,6.20
2018-02-10T01:12:14.411Z,6.20
2018-02-10T01:13:15.481Z,6.20
2018-02-10T01:14:16.546Z,6.20
2018-02-10T01:15:17.619Z,6.20
2018-02-10T01:16:18.701Z,6.10
2018-02-10T01:17:20.506Z,6.20
2018-02-10T01:18:21.578Z,6.20
2018-02-10T01:19:23.387Z,6.10
2018-02-10T01:20:24.483Z,6.10
2018-02-10T01:21:25.587Z,6.10
2018-02-10T01:22:26.658Z,6.10
2018-02-10T01:23:27.736Z,6.10
2018-02-10T01:24:28.816Z,6.10
2018-02-10T01:25:29.888Z,6.10
2018-02-10T01:26:30.992Z,6.10
2018-02-10T01:27:32.066Z,6.10
2018-02-10T01:28:33.132Z,6.10
2018-02-10T01:29:34.947Z,6.10
2018-02-10T01:30:36.021Z,6.10
2018-02-10T01:31:37.103Z,6.10
2018-02-10T01:32:38.175Z,6.10
2018-02-10T01:33:39.245Z,6.10
2018-02-10T01:34:40.311Z,6.10
2018-02-10T01:35:41.383Z,6.10
2018-02-10T01:36:42.454Z,6.10
2018-02-10T01:37:43.526Z,6.10
2018-02-10T01:38:44.595Z,6.10
2018-02-10T01:39:45.683Z,6.20
2018-02-10T01:40:46.750Z,6.10
2018-02-10T01:41:47.814Z,6.10
2018-02-10T01:42:48.880Z,6.10
2018-02-10T01:43:49.947Z,6.20
2018-02-10T01:44:51.047Z,6.10
2018-02-10T01:45:52.107Z,6.10
2018-02-10T01:46:53.219Z,6.10
2018-02-10T01:47:55.044Z,6.10
2018-02-10T01:48:56.106Z,6.10
2018-02-10T01:50:20.970Z,6.10
2018-02-10T01:51:22.042Z,6.10
2018-02-10T01:52:23.119Z,6.10
2018-02-10T01:53:24.200Z,6.10
2018-02-10T01:54:25.362Z,6.10
2018-02-10T01:55:27.168Z,6.10
2018-02-10T01:56:28.979Z,6.10
2018-02-10T01:57:30.055Z,6.10
2018-02-10T01:58:31.880Z,6.10
2018-02-10T01:59:32.958Z,6.10
2018-02-10T02:00:34.007Z,6.20
2018-02-10T02:01:35.094Z,6.10
2018-02-10T02:02:36.195Z,6.20
2018-02-10T02:03:37.271Z,6.20
2018-02-10T02:04:38.347Z,6.20
2018-02-10T02:05:39.422Z,6.20
2018-02-10T02:06:41.247Z,6.20
2018-02-10T02:07:42.319Z,6.20
2018-02-10T02:08:44.144Z,6.20
2018-02-10T02:09:45.222Z,6.20
2018-02-10T02:10:46.302Z,6.20
2018-02-10T02:11:47.379Z,6.20
2018-02-10T02:12:48.460Z,6.20
2018-02-10T02:13:49.515Z,6.20
2018-02-10T02:14:50.606Z,6.20
2018-02-10T02:15:51.694Z,6.20
2018-02-10T02:16:53.520Z,6.20
2018-02-10T02:17:54.592Z,6.20
2018-02-10T02:18:55.638Z,6.20
2018-02-10T02:19:56.715Z,6.20
2018-02-10T02:20:57.782Z,6.20
2018-02-10T02:21:58.846Z,6.20
2018-02-10T02:22:59.911Z,6.20
2018-02-10T02:24:00.982Z,6.20
2018-02-10T02:25:02.077Z,6.20
2018-02-10T02:26:03.143Z,6.10
2018-02-10T02:27:04.206Z,6.10
2018-02-10T02:28:05.283Z,6.10
2018-02-10T02:29:07.110Z,6.10
2018-02-10T02:30:08.171Z,6.10
2018-02-10T02:31:09.247Z,6.10
2018-02-10T02:32:10.315Z,6.20
2018-02-10T02:33:12.156Z,6.10
2018-02-10T02:34:13.248Z,6.10
2018-02-10T02:35:15.067Z,6.20
2018-02-10T02:36:16.884Z,6.10
2018-02-10T02:37:18.032Z,6.10
2018-02-10T02:38:19.181Z,6.10
2018-02-10T02:39:20.344Z,6.10
2018-02-10T02:40:22.055Z,6.10
2018-02-10T02:41:23.131Z,6.10
2018-02-10T02:42:24.183Z,6.10
2018-02-10T02:43:25.254Z,6.10
2018-02-10T02:44:26.324Z,6.10
2018-02-10T02:45:27.413Z,6.10
2018-02-10T02:46:28.474Z,6.10
2018-02-10T02:47:29.535Z,6.10
2018-02-10T02:48:30.632Z,6.10
2018-02-10T02:49:31.711Z,6.10
2018-02-10T02:50:32.773Z,6.10
2018-02-10T02:51:33.843Z,6.10
2018-02-10T02:52:34.903Z,6.10
2018-02-10T02:53:35.983Z,6.10
2018-02-10T02:54:37.066Z,6.10
2018-02-10T02:55:38.155Z,6.10
2018-02-10T02:56:39.224Z,6.10
2018-02-10T02:57:40.292Z,6.10
2018-02-10T02:58:41.375Z,6.10
2018-02-10T02:59:43.177Z,6.10
2018-02-10T03:00:44.246Z,6.10
2018-02-10T03:01:45.303Z,6.20
2018-02-10T03:02:46.369Z,6.10
2018-02-10T03:03:47.456Z,6.30
2018-02-10T03:04:48.527Z,6.10
2018-02-10T03:05:49.604Z,6.20
2018-02-10T03:06:50.690Z,6.20
2018-02-10T03:07:51.761Z,6.20
2018-02-10T03:08:52.861Z,6.10
2018-02-10T03:09:53.943Z,6.20
2018-02-10T03:10:55.018Z,6.20
2018-02-10T03:11:56.078Z,6.20
2018-02-10T03:12:57.154Z,6.20
2018-02-10T03:13:58.216Z,6.20
2018-02-10T03:14:59.275Z,6.20
2018-02-10T03:16:00.359Z,6.10
2018-02-10T03:17:01.438Z,6.10
2018-02-10T03:18:03.259Z,6.10
2018-02-10T03:19:04.346Z,5.90
2018-02-10T03:20:05.414Z,6.10
2018-02-10T03:21:06.471Z,6.10
2018-02-10T03:22:08.296Z,6.10
2018-02-10T03:23:09.407Z,6.10
2018-02-10T03:24:10.524Z,6.10
2018-02-10T03:25:11.603Z,6.10
2018-02-10T03:26:12.673Z,6.10
2018-02-10T03:27:13.734Z,6.10
2018-02-10T03:28:14.818Z,6.10
2018-02-10T03:29:15.899Z,6.10
2018-02-10T03:30:16.987Z,6.10
2018-02-10T03:31:18.076Z,6.10
2018-02-10T03:32:19.139Z,6.10
2018-02-10T03:33:20.198Z,6.00
2018-02-10T03:34:21.281Z,5.90
2018-02-10T03:35:22.476Z,5.90
2018-02-10T03:36:23.530Z,5.80
2018-02-10T03:37:24.600Z,5.80
2018-02-10T03:38:25.675Z,5.70
2018-02-10T03:39:26.755Z,5.80
2018-02-10T03:40:27.834Z,5.80
2018-02-10T03:41:29.655Z,5.80
2018-02-10T03:42:31.492Z,5.80
2018-02-10T03:43:32.559Z,5.80
2018-02-10T03:44:33.644Z,5.80
2018-02-10T03:45:34.710Z,5.80
2018-02-10T03:46:35.802Z,5.60
2018-02-10T03:47:36.892Z,5.80
2018-02-10T03:48:37.958Z,5.80
2018-02-10T03:49:39.022Z,5.90
2018-02-10T03:50:40.091Z,5.90
2018-02-10T03:51:41.164Z,5.90
2018-02-10T03:52:42.243Z,5.90
2018-02-10T03:53:43.298Z,6.00
2018-02-10T03:54:44.382Z,6.00
2018-02-10T03:55:45.443Z,6.00
2018-02-10T03:56:46.500Z,6.00
2018-02-10T03:57:47.578Z,6.00
2018-02-10T03:58:48.659Z,6.10
2018-02-10T03:59:49.743Z,6.00
2018-02-10T04:00:50.814Z,6.10
2018-02-10T04:01:51.880Z,6.10
2018-02-10T04:02:52.966Z,6.10
2018-02-10T04:03:54.047Z,6.10
2018-02-10T04:04:55.110Z,6.10
2018-02-10T04:05:56.935Z,6.10
2018-02-10T04:06:58.011Z,6.10
2018-02-10T04:07:59.092Z,6.10
2018-02-10T04:09:00.153Z,6.10
2018-02-10T04:10:01.999Z,6.20
2018-02-10T04:11:03.867Z,6.10
2018-02-10T04:12:04.930Z,6.20
2018-02-10T04:13:06.071Z,6.10
2018-02-10T04:14:07.130Z,6.10
2018-02-10T04:15:08.260Z,6.10
2018-02-10T04:16:09.327Z,6.20
2018-02-10T04:17:11.126Z,6.10
2018-02-10T04:18:12.176Z,6.10
2018-02-10T04:19:13.239Z,6.10
2018-02-10T04:20:14.331Z,6.10
2018-02-10T04:21:15.402Z,6.00
2018-02-10T04:22:17.206Z,6.20
2018-02-10T04:23:18.264Z,6.10
2018-02-10T04:24:19.336Z,6.20
2018-02-10T04:25:20.422Z,6.10
2018-02-10T04:26:21.481Z,6.10
2018-02-10T04:27:22.534Z,6.20
2018-02-10T04:28:23.611Z,6.10
2018-02-10T04:29:24.696Z,6.10
2018-02-10T04:30:25.775Z,6.10
2018-02-10T04:31:26.868Z,6.10
2018-02-10T04:32:27.940Z,6.20
2018-02-10T04:33:29.010Z,6.10
2018-02-10T04:34:30.804Z,6.10
2018-02-10T04:35:31.886Z,6.10
2018-02-10T04:36:33.695Z,6.20
2018-02-10T04:37:34.878Z,6.20
2018-02-10T04:38:35.944Z,6.20
2018-02-10T04:39:37.012Z,6.10
2018-02-10T04:40:38.074Z,6.10
2018-02-10T04:41:39.151Z,6.20
2018-02-10T04:42:40.213Z,6.20
2018-02-10T04:43:41.299Z,6.10
2018-02-10T04:44:42.360Z,6.20
2018-02-10T04:45:43.464Z,6.10
2018-02-10T04:46:44.556Z,6.10
2018-02-10T04:47:45.626Z,6.10
2018-02-10T04:48:46.698Z,6.20
2018-02-10T04:49:47.763Z,6.20
2018-02-10T04:50:48.871Z,6.10
2018-02-10T04:51:50.683Z,6.10
2018-02-10T04:52:51.759Z,6.10
2018-02-10T04:53:53.560Z,6.20
2018-02-10T04:54:54.628Z,6.10
2018-02-10T04:55:55.698Z,6.10
2018-02-10T04:56:56.746Z,6.10
2018-02-10T04:57:57.806Z,6.10
2018-02-10T04:58:58.924Z,6.20
2018-02-10T04:59:59.983Z,6.20
2018-02-10T05:01:01.067Z,6.20
2018-02-10T05:02:02.138Z,6.20
2018-02-10T05:03:03.190Z,6.10
2018-02-10T05:04:04.267Z,6.10
2018-02-10T05:05:05.323Z,6.20
2018-02-10T05:06:06.402Z,6.10
2018-02-10T05:07:07.510Z,6.10
2018-02-10T05:08:08.559Z,6.10
2018-02-10T05:09:09.620Z,6.10
2018-02-10T05:10:10.703Z,6.10
2018-02-10T05:11:11.783Z,6.10
2018-02-10T05:12:12.859Z,6.10
2018-02-10T05:13:13.932Z,6.10
2018-02-10T05:14:14.999Z,6.10
2018-02-10T05:15:16.084Z,6.10
2018-02-10T05:16:17.894Z,6.10
2018-02-10T05:17:18.963Z,6.10
2018-02-10T05:18:20.790Z,6.20
2018-02-10T05:19:21.890Z,6.10
2018-02-10T05:20:23.027Z,6.10
2018-02-10T05:21:24.114Z,6.20
2018-02-10T05:22:25.934Z,6.20
2018-02-10T05:23:26.994Z,6.20
2018-02-10T05:24:28.820Z,6.20
2018-02-10T05:25:29.951Z,6.20
2018-02-10T05:26:31.031Z,6.20
2018-02-10T05:27:32.110Z,6.20
2018-02-10T05:28:33.195Z,6.20
2018-02-10T05:29:34.306Z,6.20
2018-02-10T05:30:35.405Z,6.20
2018-02-10T05:31:36.497Z,6.20
2018-02-10T05:32:37.570Z,6.20
2018-02-10T05:33:38.683Z,6.20
2018-02-10T05:34:39.758Z,6.20
2018-02-10T05:35:41.589Z,6.20
2018-02-10T05:36:42.722Z,6.20
2018-02-10T05:37:43.804Z,6.20
2018-02-10T05:38:44.881Z,6.10
2018-02-10T05:39:45.958Z,6.10
2018-02-10T05:40:47.035Z,6.10
2018-02-10T05:41:48.136Z,6.20
2018-02-10T05:42:49.226Z,6.20
2018-02-10T05:43:50.299Z,6.20
2018-02-10T05:44:51.379Z,6.20
2018-02-10T05:45:52.450Z,6.20
2018-02-10T05:46:53.530Z,6.30
2018-02-10T05:47:54.598Z,6.30
2018-02-10T05:48:56.422Z,6.30
2018-02-10T05:49:57.522Z,6.20
2018-02-10T05:50:58.631Z,6.20
2018-02-10T05:51:59.732Z,6.30
2018-02-10T05:53:00.804Z,6.30
2018-02-10T05:54:01.898Z,6.30
2018-02-10T05:55:02.974Z,6.30
2018-02-10T05:56:04.110Z,6.30
2018-02-10T05:57:05.163Z,6.30
2018-02-10T05:58:06.249Z,6.30
2018-02-10T05:59:07.326Z,6.40
2018-02-10T06:00:08.414Z,6.30
2018-02-10T06:01:10.230Z,6.30
2018-02-10T06:02:11.323Z,6.30
2018-02-10T06:03:12.398Z,6.10
2018-02-10T06:04:13.506Z,6.30
2018-02-10T06:05:14.586Z,6.20
2018-02-10T06:06:16.408Z,6.30
2018-02-10T06:07:17.498Z,6.40
2018-02-10T06:08:18.566Z,6.40
2018-02-10T06:09:19.658Z,6.40
2018-02-10T06:10:20.743Z,6.40
2018-02-10T06:11:21.818Z,6.40
2018-02-10T06:12:22.906Z,6.40
2018-02-10T06:13:24.016Z,6.40
2018-02-10T06:14:25.131Z,6.30
2018-02-10T06:15:26.202Z,6.40
2018-02-10T06:16:27.276Z,6.40
2018-02-10T06:17:28.382Z,6.40
2018-02-10T06:18:29.475Z,6.40
2018-02-10T06:19:30.544Z,6.30
2018-02-10T06:20:31.643Z,6.20
2018-02-10T06:21:32.731Z,6.20
2018-02-10T06:22:33.811Z,6.20
2018-02-10T06:23:34.955Z,6.10
2018-02-10T06:24:36.039Z,6.10
2018-02-10T06:25:37.098Z,6.10
2018-02-10T06:26:38.178Z,6.10
2018-02-10T06:27:40.039Z,6.10
2018-02-10T06:28:41.118Z,6.10
2018-02-10T06:29:42.194Z,6.20
2018-02-10T06:30:43.274Z,6.20
2018-02-10T06:31:45.099Z,6.20
2018-02-10T06:32:46.186Z,6.20
2018-02-10T06:33:47.291Z,6.20
2018-02-10T06:34:48.373Z,6.20
2018-02-10T06:35:49.472Z,6.20
2018-02-10T06:36:50.550Z,6.20
2018-02-10T06:37:51.643Z,6.30
2018-02-10T06:38:52.716Z,6.30
2018-02-10T06:39:54.516Z,6.30
2018-02-10T06:40:55.599Z,6.30
2018-02-10T06:41:56.687Z,6.30
2018-02-10T06:42:57.761Z,6.40
2018-02-10T06:43:58.832Z,6.40
2018-02-10T06:44:59.911Z,6.40
2018-02-10T06:46:00.990Z,6.40
2018-02-10T06:47:02.066Z,6.40
2018-02-10T06:48:03.154Z,6.40
2018-02-10T06:49:04.240Z,6.40
2018-02-10T06:50:06.721Z,6.40
2018-02-10T06:51:08.534Z,6.40
2018-02-10T06:52:09.600Z,6.40
2018-02-10T06:53:10.698Z,6.40
2018-02-10T06:54:11.799Z,6.40
2018-02-10T06:55:12.898Z,6.40
2018-02-10T06:56:14.711Z,6.40
2018-02-10T06:57:15.814Z,6.40
2018-02-10T06:58:16.911Z,6.40
2018-02-10T06:59:17.984Z,6.50
2018-02-10T07:00:19.083Z,6.40
2018-02-10T07:01:20.142Z,6.50
2018-02-10T07:02:21.235Z,6.40
2018-02-10T07:03:23.055Z,6.40
2018-02-10T07:04:24.122Z,6.40
2018-02-10T07:05:25.935Z,6.50
2018-02-10T07:06:26.998Z,6.50
2018-02-10T07:07:28.847Z,6.50
2018-02-10T07:08:29.943Z,6.50
2018-02-10T07:09:31.014Z,6.50
2018-02-10T07:10:32.855Z,6.50
2018-02-10T07:11:34.678Z,6.50
2018-02-10T07:12:35.755Z,6.50
2018-02-10T07:13:36.834Z,6.50
2018-02-10T07:14:37.911Z,6.50
2018-02-10T07:15:39.730Z,6.50
2018-02-10T07:16:40.806Z,6.50
2018-02-10T07:17:41.879Z,6.40
2018-02-10T07:18:42.977Z,6.40
2018-02-10T07:19:44.050Z,6.50
2018-02-10T07:20:45.124Z,6.50
2018-02-10T07:21:46.960Z,6.50
2018-02-10T07:22:48.051Z,6.50
2018-02-10T07:23:49.166Z,6.50
2018-02-10T07:24:50.243Z,6.50
2018-02-10T07:25:51.364Z,6.50
2018-02-10T07:26:52.427Z,6.50
2018-02-10T07:27:54.259Z,6.50
2018-02-10T07:28:55.346Z,6.50
2018-02-10T07:29:56.422Z,6.50
2018-02-10T07:30:57.499Z,6.50
2018-02-10T07:31:58.579Z,6.50
2018-02-10T07:32:59.656Z,6.50
2018-02-10T07:34:00.747Z,6.50
2018-02-10T07:35:01.838Z,6.40
2018-02-10T07:36:02.984Z,6.40
2018-02-10T07:37:04.084Z,6.40
2018-02-10T07:38:05.898Z,6.50
2018-02-10T07:39:06.990Z,6.40
2018-02-10T07:40:08.058Z,6.40
2018-02-10T07:41:09.155Z,6.40
2018-02-10T07:42:10.222Z,6.50
2018-02-10T07:43:11.291Z,6.50
2018-02-10T07:44:12.374Z,6.40
2018-02-10T07:45:13.491Z,6.50
2018-02-10T07:46:14.559Z,6.40
2018-02-10T07:47:15.643Z,6.50
2018-02-10T07:48:16.772Z,6.50
2018-02-10T07:49:17.871Z,6.50
2018-02-10T07:50:19.693Z,6.50
2018-02-10T07:51:20.782Z,6.50
2018-02-10T07:52:21.887Z,6.50
2018-02-10T07:53:22.963Z,6.40
2018-02-10T07:54:24.095Z,6.40
2018-02-10T07:55:25.154Z,6.40
2018-02-10T07:56:26.219Z,6.40
2018-02-10T07:57:28.043Z,6.40
2018-02-10T07:58:29.140Z,6.30
2018-02-10T07:59:30.236Z,6.30
2018-02-10T08:00:32.064Z,6.30
2018-02-10T08:01:33.131Z,6.30
2018-02-10T08:02:34.224Z,6.30
2018-02-10T08:03:35.310Z,6.30
2018-02-10T08:04:36.399Z,6.30
2018-02-10T08:05:37.482Z,6.30
2018-02-10T08:06:38.559Z,6.30
2018-02-10T08:07:39.644Z,6.30
2018-02-10T08:08:40.744Z,6.30
2018-02-10T08:09:42.569Z,6.30
2018-02-10T08:10:43.635Z,6.30
2018-02-10T08:11:44.729Z,6.30
2018-02-10T08:12:45.854Z,6.30
2018-02-10T08:13:46.951Z,6.30
2018-02-10T08:14:48.039Z,6.40
2018-02-10T08:15:49.111Z,6.30
2018-02-10T08:16:50.199Z,6.30
2018-02-10T08:17:51.327Z,6.30
2018-02-10T08:18:52.400Z,6.30
2018-02-10T08:19:53.495Z,6.30
2018-02-10T08:20:54.575Z,6.30
2018-02-10T08:21:55.654Z,6.20
2018-02-10T08:22:56.740Z,6.20
2018-02-10T08:23:57.818Z,6.10
2018-02-10T08:24:59.118Z,6.10
2018-02-10T08:26:00.198Z,6.10
2018-02-10T08:27:01.281Z,6.10
2018-02-10T08:28:02.354Z,6.10
2018-02-10T08:29:03.443Z,6.10
2018-02-10T08:30:04.551Z,6.20
2018-02-10T08:31:05.636Z,6.20
2018-02-10T08:32:06.735Z,6.10
2018-02-10T08:33:08.570Z,6.10
2018-02-10T08:34:10.386Z,6.10
2018-02-10T08:35:11.494Z,6.10
2018-02-10T08:36:12.573Z,6.10
2018-02-10T08:37:13.669Z,6.10
2018-02-10T08:38:14.758Z,6.10
2018-02-10T08:39:15.855Z,6.10
2018-02-10T08:40:16.941Z,6.20
2018-02-10T08:41:18.014Z,6.20
2018-02-10T08:42:19.087Z,6.20
2018-02-10T08:43:20.176Z,6.20
2018-02-10T08:44:21.279Z,6.30
2018-02-10T08:45:22.362Z,6.30
2018-02-10T08:46:23.434Z,6.40
2018-02-10T08:47:24.523Z,6.30
2018-02-10T08:48:26.342Z,6.30
2018-02-10T08:49:27.415Z,6.30
2018-02-10T08:50:28.506Z,6.30
2018-02-10T08:51:29.594Z,6.40
2018-02-10T08:52:30.679Z,6.40
2018-02-10T08:53:31.794Z,6.40
2018-02-10T08:54:32.955Z,6.40
2018-02-10T08:55:34.063Z,6.40
2018-02-10T08:56:35.150Z,6.40
2018-02-10T08:57:36.955Z,6.50
2018-02-10T08:58:38.979Z,6.40
2018-02-10T08:59:40.051Z,6.50
2018-02-10T09:00:41.134Z,6.50
2018-02-10T09:01:42.204Z,6.50
2018-02-10T09:02:43.291Z,6.50
2018-02-10T09:03:44.366Z,6.50
2018-02-10T09:04:45.446Z,6.50
2018-02-10T09:05:46.526Z,6.50
2018-02-10T09:06:47.667Z,6.50
2018-02-10T09:07:48.769Z,6.50
2018-02-10T09:08:49.855Z,6.50
2018-02-10T09:09:50.951Z,6.50
2018-02-10T09:10:53.375Z,6.60
2018-02-10T09:11:54.446Z,6.60
2018-02-10T09:12:55.550Z,6.60
2018-02-10T09:13:56.614Z,6.60
2018-02-10T09:14:57.678Z,6.70
2018-02-10T09:15:58.782Z,6.70
2018-02-10T09:16:59.866Z,6.70
2018-02-10T09:18:00.962Z,6.70
2018-02-10T09:19:02.080Z,6.70
2018-02-10T09:20:03.213Z,6.70
2018-02-10T09:21:04.307Z,6.70
2018-02-10T09:22:05.387Z,6.70
2018-02-10T09:23:06.458Z,6.70
2018-02-10T09:24:07.594Z,6.70
2018-02-10T09:25:08.787Z,6.80
2018-02-10T09:26:10.765Z,6.80
2018-02-10T09:27:11.863Z,6.80
2018-02-10T09:28:12.980Z,6.80
2018-02-10T09:29:14.055Z,6.80
2018-02-10T09:30:15.115Z,6.80
2018-02-10T09:31:16.200Z,6.80
2018-02-10T09:32:17.288Z,6.80
2018-02-10T09:33:19.135Z,6.90
2018-02-10T09:34:20.975Z,6.80
2018-02-10T09:35:22.083Z,6.80
2018-02-10T09:36:23.175Z,6.80
2018-02-10T09:37:24.254Z,6.90
2018-02-10T09:38:25.347Z,6.90
2018-02-10T09:39:26.488Z,6.90
2018-02-10T09:40:27.583Z,6.90
2018-02-10T09:41:28.662Z,6.90
2018-02-10T09:42:29.750Z,6.90
2018-02-10T09:43:30.838Z,6.80
2018-02-10T09:44:31.923Z,6.80
2018-02-10T09:45:33.024Z,6.80
2018-02-10T09:46:34.891Z,6.80
2018-02-10T09:47:35.971Z,6.90
2018-02-10T09:48:37.046Z,6.80
2018-02-10T09:49:38.852Z,6.80
2018-02-10T09:50:39.918Z,6.80
2018-02-10T09:51:41.774Z,6.80
2018-02-10T09:52:42.863Z,6.80
2018-02-10T09:53:43.943Z,6.80
2018-02-10T09:54:45.095Z,6.80
2018-02-10T09:55:46.194Z,6.80
2018-02-10T09:56:47.333Z,6.70
2018-02-10T09:57:48.429Z,6.90
2018-02-10T09:58:49.503Z,6.90
2018-02-10T09:59:51.342Z,6.90
2018-02-10T10:00:52.420Z,6.90
2018-02-10T10:01:53.563Z,7.00
2018-02-10T10:02:54.655Z,7.00
2018-02-10T10:03:56.478Z,6.90
2018-02-10T10:04:57.547Z,6.90
2018-02-10T10:05:59.423Z,6.90
2018-02-10T10:07:00.499Z,6.90
2018-02-10T10:08:01.577Z,6.70
2018-02-10T10:09:02.632Z,6.90
2018-02-10T10:10:03.724Z,6.90
2018-02-10T10:11:04.815Z,6.90
2018-02-10T10:12:05.883Z,6.90
2018-02-10T10:13:07.704Z,6.90
2018-02-10T10:14:11.903Z,6.90
2018-02-10T10:15:13.669Z,6.90
2018-02-10T10:16:14.763Z,6.90
2018-02-10T10:17:15.886Z,6.90
2018-02-10T10:18:16.976Z,6.80
2018-02-10T10:19:18.781Z,6.80
2018-02-10T10:20:19.842Z,6.80
2018-02-10T10:21:20.908Z,6.80
2018-02-10T10:22:22.055Z,6.90
2018-02-10T10:23:23.971Z,6.90
2018-02-10T10:24:25.052Z,6.90
2018-02-10T10:25:26.126Z,6.90
2018-02-10T10:26:27.939Z,6.80
2018-02-10T10:27:29.008Z,6.90
2018-02-10T10:28:30.082Z,6.80
2018-02-10T10:29:31.159Z,6.70
2018-02-10T10:30:32.207Z,6.70
2018-02-10T10:31:33.263Z,6.70
2018-02-10T10:32:35.140Z,6.60
2018-02-10T10:33:36.217Z,6.60
2018-02-10T10:34:37.279Z,6.60
2018-02-10T10:35:38.339Z,6.60
2018-02-10T10:36:39.407Z,6.60
2018-02-10T10:37:40.479Z,6.50
2018-02-10T10:38:42.281Z,6.70
2018-02-10T10:39:43.334Z,6.70
2018-02-10T10:40:44.398Z,6.70
2018-02-10T10:41:45.472Z,6.80
2018-02-10T10:42:46.556Z,6.80
2018-02-10T10:43:47.665Z,6.90
2018-02-10T10:44:48.728Z,6.90
2018-02-10T10:45:49.802Z,7.00
2018-02-10T10:46:50.883Z,7.00
2018-02-10T10:47:51.974Z,7.10
2018-02-10T10:48:53.030Z,7.20
2018-02-10T10:49:54.850Z,7.30
2018-02-10T10:50:55.923Z,7.30
2018-02-10T10:51:57.733Z,7.30
2018-02-10T10:52:58.867Z,7.30
2018-02-10T10:53:59.946Z,7.30
2018-02-10T10:55:01.011Z,7.30
2018-02-10T10:56:02.067Z,7.30
2018-02-10T10:57:03.146Z,7.20
2018-02-10T10:58:04.224Z,7.20
2018-02-10T10:59:05.312Z,7.30
2018-02-10T11:00:06.427Z,7.30
2018-02-10T11:01:07.502Z,7.30
2018-02-10T11:02:08.579Z,7.40
2018-02-10T11:03:10.403Z,7.50
2018-02-10T11:04:11.498Z,7.40
2018-02-10T11:05:12.571Z,7.50
2018-02-10T11:06:13.608Z,7.50
2018-02-10T11:07:14.670Z,7.60
2018-02-10T11:08:15.779Z,7.50
2018-02-10T11:09:16.851Z,7.50
2018-02-10T11:10:17.923Z,7.50
2018-02-10T11:11:18.997Z,7.50
2018-02-10T11:12:20.803Z,7.50
2018-02-10T11:13:21.880Z,7.50
2018-02-10T11:14:22.960Z,7.50
2018-02-10T11:15:24.024Z,7.50
2018-02-10T11:16:25.095Z,7.60
2018-02-10T11:17:26.166Z,7.60
2018-02-10T11:18:27.259Z,7.60
2018-02-10T11:19:28.416Z,7.70
2018-02-10T11:20:29.492Z,7.70
2018-02-10T11:21:31.299Z,7.70
2018-02-10T11:22:33.157Z,7.70
2018-02-10T11:23:34.248Z,7.70
2018-02-10T11:24:35.314Z,7.70
2018-02-10T11:25:36.423Z,7.70
2018-02-10T11:26:37.584Z,7.70
2018-02-10T11:27:38.673Z,7.70
2018-02-10T11:28:40.497Z,7.70
2018-02-10T11:29:41.575Z,7.70
2018-02-10T11:30:42.668Z,7.70
2018-02-10T11:31:43.778Z,7.70
2018-02-10T11:32:44.847Z,7.70
2018-02-10T11:33:45.907Z,7.70
2018-02-10T11:34:46.978Z,7.70
2018-02-10T11:35:48.050Z,7.70
2018-02-10T11:36:49.114Z,7.70
2018-02-10T11:37:50.909Z,7.70
2018-02-10T11:38:52.746Z,7.80
2018-02-10T11:39:53.807Z,7.70
2018-02-10T11:40:55.619Z,7.80
2018-02-10T11:41:56.679Z,7.80
2018-02-10T11:42:57.792Z,7.80
2018-02-10T11:43:58.866Z,7.80
2018-02-10T11:44:59.927Z,7.80
2018-02-10T11:46:01.002Z,7.80
2018-02-10T11:47:02.075Z,7.80
2018-02-10T11:48:03.136Z,7.80
2018-02-10T11:49:04.203Z,7.90
2018-02-10T11:50:05.283Z,7.90
2018-02-10T11:51:06.338Z,7.90
2018-02-10T11:52:07.421Z,7.90
2018-02-10T11:53:08.479Z,7.80
2018-02-10T11:54:09.579Z,7.80
2018-02-10T11:55:10.670Z,7.80
2018-02-10T11:56:11.744Z,7.80
2018-02-10T11:57:12.821Z,7.90
2018-02-10T11:58:13.882Z,7.90
2018-02-10T11:59:14.979Z,7.80
2018-02-10T12:00:16.059Z,7.90
2018-02-10T12:01:17.171Z,7.80
2018-02-10T12:02:18.211Z,7.80
2018-02-10T12:03:19.276Z,7.80
2018-02-10T12:04:20.348Z,7.80
2018-02-10T12:05:22.144Z,7.80
2018-02-10T12:06:23.243Z,7.60
2018-02-10T12:07:24.316Z,7.90
2018-02-10T12:08:25.370Z,7.70
2018-02-10T12:09:26.438Z,7.70
2018-02-10T12:10:27.520Z,7.70
2018-02-10T12:11:28.615Z,7.70
2018-02-10T12:12:29.748Z,7.70
2018-02-10T12:13:30.844Z,7.70
2018-02-10T12:14:31.943Z,7.70
2018-02-10T12:15:33.011Z,7.70
2018-02-10T12:16:34.071Z,7.80
2018-02-10T12:17:35.172Z,7.80
2018-02-10T12:18:36.262Z,7.80
2018-02-10T12:19:38.171Z,7.80
2018-02-10T12:20:39.258Z,7.80
2018-02-10T12:21:40.335Z,7.80
2018-02-10T12:22:41.451Z,7.80
2018-02-10T12:23:43.266Z,7.80
2018-02-10T12:24:44.337Z,7.80
2018-02-10T12:25:45.413Z,7.80
2018-02-10T12:26:47.223Z,7.70
2018-02-10T12:27:48.299Z,7.70
2018-02-10T12:28:50.123Z,7.60
2018-02-10T12:29:51.231Z,7.60
2018-02-10T12:30:52.310Z,7.50
2018-02-10T12:31:54.118Z,7.40
2018-02-10T12:32:55.268Z,7.40
2018-02-10T12:33:56.359Z,7.30
2018-02-10T12:34:57.433Z,7.30
2018-02-10T12:35:58.502Z,7.20
2018-02-10T12:36:59.625Z,7.20
2018-02-10T12:38:00.691Z,7.20
2018-02-10T12:39:01.768Z,7.20
2018-02-10T12:40:02.886Z,7.20
2018-02-10T12:41:03.951Z,7.20
2018-02-10T12:42:05.847Z,7.10
2018-02-10T12:43:07.000Z,7.10
2018-02-10T12:44:08.075Z,7.10
2018-02-10T12:45:09.176Z,7.10
2018-02-10T12:46:10.255Z,7.10
2018-02-10T12:47:11.314Z,7.20
2018-02-10T12:48:18.366Z,7.10
2018-02-10T12:50:45.927Z,7.00
2018-02-10T12:51:47.002Z,7.00
2018-02-10T12:52:48.056Z,7.10
2018-02-10T12:53:49.142Z,7.10
2018-02-10T12:54:50.212Z,7.10
2018-02-10T12:55:51.303Z,7.10
2018-02-10T12:56:52.411Z,7.10
2018-02-10T12:57:53.503Z,7.10
2018-02-10T12:58:54.634Z,7.10
2018-02-10T12:59:55.759Z,7.30
2018-02-10T13:00:56.889Z,7.20
2018-02-10T13:01:58.027Z,7.30
2018-02-10T13:02:59.110Z,7.30
2018-02-10T13:04:00.171Z,7.30
2018-02-10T13:05:01.275Z,7.30
2018-02-10T13:06:02.350Z,7.30
2018-02-10T13:07:03.443Z,7.30
2018-02-10T13:08:04.523Z,7.20
2018-02-10T13:09:05.585Z,7.20
2018-02-10T13:10:07.397Z,7.20
2018-02-10T13:11:08.479Z,7.20
2018-02-10T13:12:10.280Z,7.20
2018-02-10T13:13:11.359Z,7.20
2018-02-10T13:14:13.163Z,7.10
2018-02-10T13:15:14.242Z,7.10
2018-02-10T13:16:15.309Z,7.10
2018-02-10T13:17:16.407Z,7.20
2018-02-10T13:18:17.474Z,7.20
2018-02-10T13:19:18.539Z,7.20
2018-02-10T13:20:19.616Z,7.10
2018-02-10T13:21:20.700Z,7.10
2018-02-10T13:22:21.790Z,7.00
2018-02-10T13:23:22.863Z,7.00
2018-02-10T13:24:23.939Z,7.00
2018-02-10T13:25:25.010Z,7.00
2018-02-10T13:26:26.119Z,7.00
2018-02-10T13:27:27.191Z,7.00
2018-02-10T13:28:28.305Z,7.00
2018-02-10T13:29:29.364Z,6.90
2018-02-10T13:30:30.483Z,7.00
2018-02-10T13:31:31.579Z,7.00
2018-02-10T13:32:32.633Z,7.00
2018-02-10T13:33:33.703Z,7.00
2018-02-10T13:34:35.522Z,7.00
2018-02-10T13:35:36.606Z,7.00
2018-02-10T13:36:38.415Z,6.90
2018-02-10T13:37:39.542Z,6.90